createdAt,value
2019-04-21T00:01:14.437Z,64.83
2019-04-21T00:03:48.358Z,64.16
2019-04-21T00:06:29.923Z,63.47
2019-04-21T00:09:02.393Z,60.38
2019-04-21T00:11:29.573Z,61.70
2019-04-21T00:13:49.611Z,63.68
2019-04-21T00:16:07.493Z,60.73
2019-04-21T00:18:40.703Z,64.63
2019-04-21T00:21:12.275Z,61.16
2019-04-21T00:23:48.972Z,62.82
2019-04-21T00:26:16.492Z,60.07
2019-04-21T00:31:24.843Z,63.85
2019-04-21T00:33:37.317Z,62.79
2019-04-21T00:36:10.208Z,62.19
2019-04-21T00:39:04.122Z,59.88
2019-04-21T00:41:19.269Z,62.48
2019-04-21T00:43:41.318Z,62.50
2019-04-21T00:46:03.233Z,62.06
2019-04-21T00:48:47.587Z,63.91
2019-04-21T00:51:27.618Z,62.09
2019-04-21T00:53:52.211Z,61.88
2019-04-21T00:56:15.318Z,64.17
2019-04-21T00:58:39.322Z,64.89
2019-04-21T01:01:12.147Z,63.06
2019-04-21T01:06:16.356Z,62.55
2019-04-21T01:08:41.206Z,64.02
2019-04-21T01:11:01.504Z,65.10
2019-04-21T01:13:42.620Z,64.72
2019-04-21T01:16:05.665Z,64.46
2019-04-21T01:20:47.508Z,65.14
2019-04-21T01:23:16.720Z,66.00
2019-04-21T01:25:57.178Z,64.50
2019-04-21T01:28:29.321Z,65.55
2019-04-21T01:31:05.589Z,63.08
2019-04-21T01:33:32.508Z,61.33
2019-04-21T01:35:54.954Z,61.16
2019-04-21T01:38:32.009Z,64.30
2019-04-21T01:41:05.153Z,63.11
2019-04-21T01:43:24.695Z,63.64
2019-04-21T01:45:51.954Z,65.45
2019-04-21T01:48:15.866Z,63.26
2019-04-21T01:50:47.040Z,66.73
2019-04-21T01:53:24.359Z,68.18
2019-04-21T01:56:04.852Z,66.09
2019-04-21T01:58:27.055Z,69.34
2019-04-21T02:06:15.938Z,69.47
2019-04-21T02:08:34.688Z,70.39
2019-04-21T02:11:05.246Z,69.79
2019-04-21T02:13:27.974Z,70.47
2019-04-21T02:18:29.189Z,70.17
2019-04-21T02:20:47.632Z,70.42
2019-04-21T02:23:34.984Z,71.13
2019-04-21T02:25:58.795Z,72.12
2019-04-21T02:28:29.889Z,71.15
2019-04-21T02:33:39.175Z,74.29
2019-04-21T02:36:17.065Z,70.64
2019-04-21T02:38:37.784Z,72.31
2019-04-21T02:40:49.508Z,74.56
2019-04-21T02:43:24.888Z,73.90
2019-04-21T02:45:56.062Z,73.37
2019-04-21T02:48:36.981Z,71.87
2019-04-21T02:50:47.304Z,72.85
2019-04-21T02:53:30.365Z,75.08
2019-04-21T02:55:44.048Z,73.56
2019-04-21T02:58:18.324Z,76.01
2019-04-21T03:03:19.640Z,70.85
2019-04-21T03:11:08.674Z,73.83
2019-04-21T03:13:40.569Z,73.22
2019-04-21T03:16:23.527Z,73.50
2019-04-21T03:18:39.976Z,70.89
2019-04-21T03:36:37.193Z,72.44
2019-04-21T03:41:00.978Z,73.91
2019-04-21T03:43:34.854Z,73.10
2019-04-21T03:45:49.582Z,72.41
2019-04-21T03:48:28.797Z,73.06
2019-04-21T03:50:46.934Z,74.99
2019-04-21T03:53:25.007Z,75.72
2019-04-21T03:55:53.325Z,74.54
2019-04-21T04:01:00.393Z,73.09
2019-04-21T04:08:35.011Z,72.48
2019-04-21T04:13:34.013Z,72.73
2019-04-21T04:16:00.514Z,73.48
2019-04-21T04:18:28.312Z,73.60
2019-04-21T04:21:06.070Z,73.52
2019-04-21T04:23:31.037Z,73.39
2019-04-21T04:25:43.789Z,73.05
2019-04-21T04:28:28.743Z,72.86
2019-04-21T04:30:37.860Z,74.25
2019-04-21T04:33:10.249Z,73.05
2019-04-21T04:35:49.429Z,74.35
2019-04-21T04:38:03.357Z,72.77
2019-04-21T04:40:48.534Z,73.87
2019-04-21T04:45:48.248Z,76.94
2019-04-21T04:53:11.990Z,70.42
2019-04-21T04:55:39.191Z,72.28
2019-04-21T04:58:40.448Z,71.49
2019-04-21T05:13:48.538Z,69.35
2019-04-21T05:16:24.459Z,69.19
2019-04-21T05:18:45.199Z,68.47
2019-04-21T05:23:31.245Z,67.12
2019-04-21T05:25:54.381Z,69.30
2019-04-21T05:28:25.995Z,68.28
2019-04-21T05:31:13.846Z,67.71
2019-04-21T05:33:43.058Z,67.46
2019-04-21T05:36:04.785Z,66.84
2019-04-21T05:41:26.577Z,65.26
2019-04-21T05:44:05.339Z,67.95
2019-04-21T05:46:34.403Z,66.47
2019-04-21T05:51:31.739Z,64.91
2019-04-21T05:54:09.286Z,64.69
2019-04-21T05:56:32.617Z,63.27
2019-04-21T06:01:40.879Z,62.78
2019-04-21T06:06:39.660Z,61.72
2019-04-21T06:09:10.034Z,63.00
2019-04-21T06:11:36.369Z,62.47
2019-04-21T06:14:10.874Z,62.94
2019-04-21T06:16:40.485Z,62.31
2019-04-21T06:19:25.508Z,62.69
2019-04-21T06:21:33.345Z,63.25
2019-04-21T06:23:57.568Z,62.50
2019-04-21T06:26:53.826Z,61.54
2019-04-21T06:29:08.634Z,61.02
2019-04-21T06:33:50.841Z,60.33
2019-04-21T06:39:11.762Z,59.27
2019-04-21T06:41:27.815Z,57.88
2019-04-21T06:43:56.679Z,56.64
2019-04-21T06:46:20.080Z,55.54
2019-04-21T06:48:49.352Z,54.98
2019-04-21T06:51:16.975Z,52.95
2019-04-21T06:53:46.019Z,53.74
2019-04-21T06:56:20.493Z,53.91
2019-04-21T06:58:35.907Z,51.89
2019-04-21T07:01:10.491Z,51.27
2019-04-21T07:03:42.263Z,51.98
2019-04-21T07:06:07.840Z,50.94
2019-04-21T07:08:34.566Z,51.24
2019-04-21T07:11:03.310Z,51.22
2019-04-21T07:13:25.364Z,50.83
2019-04-21T07:18:27.265Z,50.46
2019-04-21T07:20:53.158Z,50.59
2019-04-21T07:23:24.097Z,49.06
2019-04-21T07:25:51.956Z,49.37
2019-04-21T07:28:23.316Z,48.91
2019-04-21T07:30:55.997Z,47.74
2019-04-21T07:35:51.781Z,46.39
2019-04-21T07:40:48.354Z,44.36
2019-04-21T07:43:18.397Z,43.64
2019-04-21T07:51:25.409Z,45.18
2019-04-21T07:53:59.590Z,43.23
2019-04-21T07:56:06.539Z,43.50
2019-04-21T07:58:56.286Z,40.84
2019-04-21T08:01:20.770Z,39.69
2019-04-21T08:03:45.379Z,41.81
2019-04-21T08:08:49.217Z,40.61
2019-04-21T08:11:16.752Z,39.76
2019-04-21T08:13:57.948Z,40.01
2019-04-21T08:16:10.876Z,39.21
2019-04-21T08:18:44.173Z,40.14
2019-04-21T08:21:08.481Z,38.25
2019-04-21T08:23:39.625Z,36.88
2019-04-21T08:31:01.281Z,35.85
2019-04-21T08:33:42.805Z,35.01
2019-04-21T08:41:08.144Z,35.07
2019-04-21T08:43:48.122Z,36.16
2019-04-21T08:45:58.768Z,35.27
2019-04-21T08:48:33.438Z,33.95
2019-04-21T08:51:05.549Z,33.47
2019-04-21T08:53:27.468Z,33.83
2019-04-21T09:01:02.408Z,31.24
2019-04-21T09:03:28.494Z,27.80
2019-04-21T09:05:59.901Z,27.87
2019-04-21T09:13:37.121Z,24.33
2019-04-21T09:18:32.532Z,24.99
2019-04-21T09:23:39.190Z,23.86
2019-04-21T09:26:14.400Z,21.71
2019-04-21T09:28:35.506Z,21.04
2019-04-21T09:33:29.712Z,23.21
2019-04-21T09:35:56.370Z,21.18
2019-04-21T09:40:59.429Z,22.87
2019-04-21T09:43:35.464Z,25.18
2019-04-21T09:45:54.834Z,22.68
2019-04-21T09:48:25.871Z,22.16
2019-04-21T09:50:52.481Z,22.70
2019-04-21T09:53:28.830Z,24.17
2019-04-21T09:55:54.250Z,24.13
2019-04-21T09:58:23.943Z,22.90
2019-04-21T10:01:00.047Z,21.46
2019-04-21T10:03:16.291Z,22.05
2019-04-21T10:05:42.689Z,19.84
2019-04-21T10:08:12.434Z,17.52
2019-04-21T10:10:40.029Z,17.42
2019-04-21T10:13:10.630Z,16.10
2019-04-21T10:15:38.288Z,19.90
2019-04-21T10:18:08.541Z,18.03
2019-04-21T10:23:11.291Z,17.23
2019-04-21T10:28:12.962Z,16.90
2019-04-21T10:30:42.558Z,17.45
2019-04-21T10:33:10.368Z,16.49
2019-04-21T10:35:39.264Z,14.52
2019-04-21T10:38:18.006Z,14.24
2019-04-21T10:40:37.127Z,15.92
2019-04-21T10:43:03.940Z,17.19
2019-04-21T10:45:32.702Z,16.36
2019-04-21T10:48:00.944Z,14.57
2019-04-21T10:50:28.763Z,15.15
2019-04-21T10:52:58.723Z,17.18
2019-04-21T10:58:10.678Z,14.38
2019-04-21T11:00:37.855Z,15.02
2019-04-21T11:05:40.764Z,14.69
2019-04-21T11:10:45.641Z,16.28
2019-04-21T11:13:12.670Z,15.30
2019-04-21T11:18:15.696Z,14.83
2019-04-21T11:20:44.735Z,14.01
2019-04-21T11:25:46.556Z,12.72
2019-04-21T11:30:50.863Z,12.57
2019-04-21T11:33:17.632Z,13.23
2019-04-21T11:35:45.986Z,11.98
2019-04-21T11:38:22.415Z,12.57
2019-04-21T11:43:24.048Z,14.23
2019-04-21T11:45:52.596Z,16.35
2019-04-21T11:48:21.878Z,14.13
2019-04-21T11:50:48.894Z,12.62
2019-04-21T11:53:17.381Z,12.77
2019-04-21T11:55:48.539Z,12.51
2019-04-21T12:00:50.194Z,12.97
2019-04-21T12:03:17.350Z,12.17
2019-04-21T12:08:30.284Z,12.86
2019-04-21T12:10:49.817Z,13.05
2019-04-21T12:13:18.314Z,13.01
2019-04-21T12:15:47.166Z,13.91
2019-04-21T12:18:15.546Z,13.21
2019-04-21T12:20:43.324Z,13.36
2019-04-21T12:23:12.189Z,11.84
2019-04-21T12:28:19.602Z,11.38
2019-04-21T12:30:49.645Z,11.52
2019-04-21T12:33:20.218Z,13.22
2019-04-21T12:38:37.871Z,12.62
2019-04-21T12:43:30.694Z,11.45
2019-04-21T12:45:58.334Z,10.79
2019-04-21T12:48:28.179Z,10.67
2019-04-21T12:50:55.301Z,11.16
2019-04-21T12:53:23.657Z,11.81
2019-04-21T12:55:52.008Z,14.10
2019-04-21T12:58:21.488Z,12.54
2019-04-21T13:00:49.636Z,12.86
2019-04-21T13:03:20.468Z,12.05
2019-04-21T13:05:47.452Z,11.87
2019-04-21T13:08:15.446Z,11.76
2019-04-21T13:10:44.289Z,13.14
2019-04-21T13:13:12.146Z,13.01
2019-04-21T13:15:40.014Z,11.44
2019-04-21T13:18:08.365Z,13.85
2019-04-21T13:20:37.923Z,14.03
2019-04-21T13:23:05.945Z,12.09
2019-04-21T13:25:33.897Z,12.75
2019-04-21T13:28:02.847Z,11.95
2019-04-21T13:30:30.578Z,13.18
2019-04-21T13:32:58.950Z,13.03
2019-04-21T13:35:26.971Z,12.70
2019-04-21T13:37:56.283Z,11.83
2019-04-21T13:40:45.125Z,11.06
2019-04-21T13:43:00.385Z,10.77
2019-04-21T13:45:25.949Z,13.39
2019-04-21T13:47:54.486Z,13.21
2019-04-21T13:50:21.550Z,12.62
2019-04-21T13:52:51.038Z,11.73
2019-04-21T13:55:19.369Z,10.83
2019-04-21T13:57:48.245Z,11.39
2019-04-21T14:00:15.585Z,11.92
2019-04-21T14:05:18.415Z,11.80
2019-04-21T14:07:48.052Z,12.48
2019-04-21T14:10:16.092Z,11.09
2019-04-21T14:12:44.484Z,12.40
2019-04-21T14:15:12.499Z,11.16
2019-04-21T14:17:40.220Z,11.00
2019-04-21T14:20:09.121Z,10.60
2019-04-21T14:22:38.064Z,10.48
2019-04-21T14:27:41.917Z,11.07
2019-04-21T14:30:10.479Z,10.67
2019-04-21T14:32:40.071Z,12.32
2019-04-21T14:35:07.049Z,13.08
2019-04-21T14:40:14.624Z,13.21
2019-04-21T14:42:38.278Z,13.83
2019-04-21T14:45:07.022Z,12.61
2019-04-21T14:47:37.982Z,11.67
2019-04-21T14:50:13.607Z,11.42
2019-04-21T14:52:41.394Z,10.54
2019-04-21T14:55:10.334Z,11.22
2019-04-21T14:57:39.122Z,10.71
2019-04-21T15:00:11.151Z,10.87
2019-04-21T15:02:39.960Z,11.22
2019-04-21T15:05:07.181Z,10.24
2019-04-21T15:07:35.517Z,11.46
2019-04-21T15:10:13.324Z,10.91
2019-04-21T15:12:34.054Z,11.25
2019-04-21T15:15:02.424Z,10.74
2019-04-21T15:17:31.683Z,10.47
2019-04-21T15:20:04.592Z,11.45
2019-04-21T15:22:28.333Z,10.27
2019-04-21T15:24:56.297Z,10.85
2019-04-21T15:27:25.113Z,11.03
2019-04-21T15:29:53.033Z,10.36
2019-04-21T15:34:56.115Z,11.41
2019-04-21T15:37:24.098Z,11.06
2019-04-21T15:39:53.067Z,10.74
2019-04-21T15:42:20.959Z,11.25
2019-04-21T15:44:50.408Z,10.74
2019-04-21T15:47:17.787Z,12.12
2019-04-21T15:52:22.291Z,11.19
2019-04-21T15:54:50.582Z,11.25
2019-04-21T15:57:19.589Z,11.54
2019-04-21T16:02:44.633Z,11.54
2019-04-21T16:05:13.016Z,11.18
2019-04-21T16:07:41.142Z,12.43
2019-04-21T16:10:10.676Z,11.72
2019-04-21T16:12:37.879Z,12.29
2019-04-21T16:15:05.957Z,13.92
2019-04-21T16:20:10.180Z,15.15
2019-04-21T16:22:37.265Z,16.83
2019-04-21T16:25:06.598Z,17.87
2019-04-21T16:27:35.400Z,16.98
2019-04-21T16:30:06.001Z,17.94
2019-04-21T16:32:34.287Z,17.93
2019-04-21T16:35:08.262Z,18.11
2019-04-21T16:40:05.358Z,19.03
2019-04-21T16:42:34.159Z,19.59
2019-04-21T16:45:03.212Z,19.74
2019-04-21T16:50:07.679Z,19.45
2019-04-21T16:52:50.380Z,21.13
2019-04-21T16:55:19.070Z,20.45
2019-04-21T16:58:02.758Z,20.61
2019-04-21T17:00:27.887Z,20.99
2019-04-21T17:05:22.401Z,21.70
2019-04-21T17:10:24.550Z,22.02
2019-04-21T17:12:53.663Z,22.63
2019-04-21T17:15:37.653Z,21.90
2019-04-21T17:18:07.871Z,22.95
2019-04-21T17:20:31.000Z,22.75
2019-04-21T17:22:47.098Z,22.46
2019-04-21T17:25:16.103Z,23.00
2019-04-21T17:30:18.823Z,22.70
2019-04-21T17:32:49.448Z,23.48
2019-04-21T17:35:16.315Z,23.29
2019-04-21T17:37:43.562Z,22.95
2019-04-21T17:40:13.435Z,24.07
2019-04-21T17:42:46.318Z,23.65
2019-04-21T17:45:09.020Z,23.90
2019-04-21T17:47:46.808Z,24.27
2019-04-21T17:50:13.648Z,26.50
2019-04-21T17:52:53.667Z,25.33
2019-04-21T17:55:27.515Z,25.83
2019-04-21T17:58:03.409Z,25.38
2019-04-21T18:01:03.622Z,25.05
2019-04-21T18:05:39.317Z,25.33
2019-04-21T18:08:11.368Z,26.00
2019-04-21T18:10:30.688Z,26.14
2019-04-21T18:12:55.329Z,26.62
2019-04-21T18:17:47.312Z,26.62
2019-04-21T18:20:17.211Z,26.62
2019-04-21T18:22:47.968Z,26.78
2019-04-21T18:25:33.355Z,27.04
2019-04-21T18:30:30.996Z,28.33
2019-04-21T18:32:59.977Z,27.48
2019-04-21T18:35:35.823Z,28.38
2019-04-21T18:38:08.007Z,28.18
2019-04-21T18:48:32.833Z,30.96
2019-04-21T18:50:57.286Z,30.96
2019-04-21T18:53:44.164Z,31.71
2019-04-21T18:55:58.211Z,31.44
2019-04-21T18:58:22.170Z,31.81
2019-04-21T19:00:51.260Z,34.31
2019-04-21T19:03:25.419Z,32.31
2019-04-21T19:08:38.730Z,34.98
2019-04-21T19:11:10.517Z,33.76
2019-04-21T19:13:49.536Z,34.33
2019-04-21T19:18:45.848Z,36.15
2019-04-21T19:24:07.181Z,35.97
2019-04-21T19:26:21.697Z,37.20
2019-04-21T19:28:50.196Z,36.31
2019-04-21T19:31:11.531Z,38.13
2019-04-21T19:33:30.083Z,36.60
2019-04-21T19:35:47.629Z,39.03
2019-04-21T19:38:18.691Z,39.33
2019-04-21T19:43:41.674Z,38.56
2019-04-21T19:46:04.354Z,39.05
2019-04-21T19:48:41.536Z,37.91
2019-04-21T19:51:04.301Z,40.99
2019-04-21T19:53:24.269Z,41.38
2019-04-21T19:55:42.406Z,41.78
2019-04-21T19:58:10.755Z,42.03
2019-04-21T20:00:38.151Z,42.25
2019-04-21T20:03:06.538Z,42.80
2019-04-21T20:05:41.805Z,42.89
2019-04-21T20:08:17.650Z,43.58
2019-04-21T20:13:35.274Z,40.90
2019-04-21T20:15:57.110Z,41.62
2019-04-21T20:18:15.307Z,41.49
2019-04-21T20:20:31.104Z,43.04
2019-04-21T20:25:41.813Z,42.08
2019-04-21T20:28:09.651Z,43.89
2019-04-21T20:30:52.716Z,45.20
2019-04-21T20:33:39.738Z,44.23
2019-04-21T20:35:52.279Z,45.13
2019-04-21T20:38:09.361Z,45.83
2019-04-21T20:40:36.306Z,45.74
2019-04-21T20:43:11.314Z,46.07
2019-04-21T20:45:40.181Z,45.57
2019-04-21T20:47:53.997Z,47.04
2019-04-21T20:50:29.826Z,48.24
2019-04-21T20:53:06.112Z,49.07
2019-04-21T20:57:57.774Z,49.09
2019-04-21T21:00:43.041Z,48.82
2019-04-21T21:03:07.467Z,48.84
2019-04-21T21:05:27.341Z,49.26
2019-04-21T21:08:06.521Z,50.01
2019-04-21T21:10:27.744Z,49.25
2019-04-21T21:15:22.788Z,48.56
2019-04-21T21:18:01.544Z,47.31
2019-04-21T21:20:27.052Z,49.68
2019-04-21T21:22:48.066Z,49.57
2019-04-21T21:25:29.988Z,48.78
2019-04-21T21:27:41.844Z,49.09
2019-04-21T21:30:10.024Z,48.82
2019-04-21T21:32:47.472Z,48.64
2019-04-21T21:35:13.477Z,51.37
2019-04-21T21:37:46.755Z,48.61
2019-04-21T21:40:11.423Z,54.81
2019-04-21T21:42:27.507Z,56.74
2019-04-21T21:45:00.727Z,56.99
2019-04-21T21:47:32.144Z,55.77
2019-04-21T21:49:57.785Z,57.10
2019-04-21T21:52:30.598Z,56.25
2019-04-21T21:54:43.609Z,56.46
2019-04-21T21:57:10.720Z,55.85
2019-04-21T21:59:40.435Z,51.83
2019-04-21T22:02:09.553Z,54.18
2019-04-21T22:04:37.895Z,52.97
2019-04-21T22:07:09.952Z,55.10
2019-04-21T22:09:32.809Z,53.91
2019-04-21T22:12:06.283Z,53.29
2019-04-21T22:17:24.754Z,54.34
2019-04-21T22:19:59.876Z,54.71
2019-04-21T22:22:21.376Z,55.71
2019-04-21T22:24:46.687Z,54.42
2019-04-21T22:29:41.811Z,53.38
2019-04-21T22:34:48.727Z,56.56
2019-04-21T22:37:27.498Z,56.72
2019-04-21T22:39:56.919Z,55.87
2019-04-21T22:42:12.195Z,55.49
2019-04-21T22:44:32.717Z,53.48
2019-04-21T22:47:12.243Z,56.08
2019-04-21T22:49:32.603Z,56.17
2019-04-21T22:52:03.972Z,55.35
2019-04-21T22:54:35.506Z,52.93
2019-04-21T22:57:04.523Z,53.24
2019-04-21T22:59:26.760Z,54.26
2019-04-21T23:01:55.887Z,55.45
2019-04-21T23:04:26.879Z,56.12
2019-04-21T23:06:56.614Z,55.27
2019-04-21T23:09:20.723Z,54.12
2019-04-21T23:11:51.483Z,59.34
2019-04-21T23:14:18.905Z,57.95
2019-04-21T23:16:49.073Z,57.08
2019-04-21T23:19:28.110Z,59.46
2019-04-21T23:22:05.638Z,59.60
2019-04-21T23:24:34.667Z,59.04
2019-04-21T23:26:53.799Z,62.18
2019-04-21T23:29:39.184Z,60.01
2019-04-21T23:31:56.063Z,65.06
2019-04-21T23:34:06.418Z,63.65
2019-04-21T23:36:35.963Z,62.26
2019-04-21T23:39:07.021Z,61.26
2019-04-21T23:41:36.166Z,61.05
2019-04-21T23:44:04.614Z,59.30
2019-04-21T23:46:31.984Z,59.73
2019-04-21T23:51:41.990Z,59.93
2019-04-21T23:54:01.896Z,57.46
2019-04-21T23:56:37.202Z,62.01
2019-04-21T23:59:03.189Z,62.44
